• Join FlightAware (Why Join?)
  • Login
  • US Flag 
03:15AM EDT


 

Airport Tracker/Info


-or-


 

Live Flight TrackerFlight Track Log ✈ C-GSCW ✈ 17-Apr-2013 ✈ CYOW - CYKZ

Flight Track Log - Related Links

Times and Time Zones

All times are in EDT time to prevent confusion due to time zone crossing. See the C-GSCW flight status page for this flight to view local times or setup timezone preferences in your user account.

Time Position Orientation Groundspeed Altitude Reporting Facility
EDT Latitude Longitude Course Direction KTS MPH feet Rate Location/Type
01:06PM 45.3333 -75.6333 360° North 110 127 2,200  Level Montreal Center
01:07PM 45.3500 -75.6167 35° Northeast 110 127 3,100 360 Climbing Montreal Center
01:08PM 45.3833 -75.5833 35° Northeast 140 161 3,000 60 Descending Montreal Center
01:09PM 45.4167 -75.6167 325° Northwest 120 138 3,300 480 Climbing Montreal Center
01:10PM 45.4000 -75.6333 215° Southwest 130 150 4,000 300 Climbing Montreal Center
01:11PM 45.2667 -76.0726 270° West  Level FlightAware Approximate
01:11PM 45.3833 -75.7000 250° West 160 184 4,000  Level Montreal Center
01:12PM 45.3667 -75.7500 245° Southwest 150 173 4,000  Level Montreal Center
01:13PM 45.4000 -75.8000 314° West 150 173 4,000  Level Montreal Center
01:14PM 45.4000 -75.8667 270° West 150 173 4,000 480 Level Montreal Center
01:15PM 45.4000 -75.9167 270° West 130 150 5,000 900 Climbing Montreal Center
01:16PM 45.3833 -75.9667 245° Southwest 130 150 5,900 840 Climbing Montreal Center
01:17PM 45.3667 -76.0167 245° Southwest 130 150 6,700 780 Climbing Montreal Center
01:18PM 45.3500 -76.0667 245° Southwest 130 150 7,500 600 Climbing Montreal Center
01:19PM 45.3000 -76.0833 193° South 130 150 8,000 240 Climbing Montreal Center
01:20PM 45.2833 -76.1333 245° Southwest 160 184 8,000  Level Montreal Center
01:21PM 45.2500 -76.1833 227° Southwest 160 184 8,000  Level Montreal Center
01:22PM 45.2333 -76.2500 250° West 160 184 8,000  Level Montreal Center
01:23PM 45.2000 -76.3000 227° Southwest 160 184 8,000  Level Montreal Center
01:24PM 45.2000 -76.3500 270° West 160 184 8,000  Level Montreal Center
01:25PM 45.1667 -76.4167 235° Southwest 160 184 8,000  Level Montreal Center
01:26PM 45.1500 -76.4667 245° Southwest 160 184 8,000  Level Montreal Center
01:27PM 45.1167 -76.5333 235° Southwest 160 184 8,000  Level Montreal Center
01:28PM 45.1000 -76.5333 180° South 160 184 8,000  Level Toronto Center
01:29PM 45.0833 -76.5833 245° Southwest 160 184 8,000  Level Toronto Center
01:29PM 45.0833 -76.6333 270° West 160 184 8,000  Level Montreal Center
01:30PM 45.0500 -76.7000 235° Southwest 160 184 8,000  Level Montreal Center
01:31PM 45.0333 -76.7500 245° Southwest 160 184 8,000  Level Montreal Center
01:32PM 45.0167 -76.8000 245° Southwest 160 184 8,000  Level Montreal Center
01:33PM 45.0000 -76.8667 251° West 160 184 8,000  Level Montreal Center
01:34PM 44.9667 -76.9167 227° Southwest 160 184 8,000  Level Montreal Center
01:35PM 44.9500 -76.9667 245° Southwest 160 184 8,000  Level Montreal Center
01:36PM 44.9333 -76.9667 180° South 160 184 8,000  Level Toronto Center
01:37PM 44.9167 -77.0500 254° West 160 184 8,000  Level Toronto Center
01:38PM 44.8833 -77.0833 215° Southwest 160 184 8,000  Level Toronto Center
01:39PM 44.8667 -77.1333 245° Southwest 160 184 8,000  Level Toronto Center
01:39PM 44.8667 -77.2000 270° West 160 184 8,000  Level Montreal Center
01:40PM 44.8500 -77.2500 245° Southwest 160 184 8,000  Level Montreal Center
01:41PM 44.8167 -77.2833 215° Southwest 160 184 8,000  Level Montreal Center
01:42PM 44.8000 -77.3667 254° West 160 184 8,000  Level Montreal Center
01:43PM 44.7833 -77.4000 235° Southwest 160 184 8,100  Climbing Montreal Center
01:44PM 44.7667 -77.4500 245° Southwest 150 173 8,100 -60 Level Montreal Center
01:45PM 44.7333 -77.5167 235° Southwest 160 184 8,000 -60 Descending Montreal Center
01:46PM 44.7167 -77.5667 245° Southwest 160 184 8,000  Level Montreal Center
01:47PM 44.7000 -77.6167 245° Southwest 160 184 8,100  Climbing Montreal Center
01:48PM 44.6833 -77.6667 245° Southwest 160 184 8,000 -60 Descending Montreal Center
01:49PM 44.6500 -77.6667 180° South 160 184 8,000  Level Toronto Center
01:50PM 44.6333 -77.7333 251° West 160 184 8,000  Level Toronto Center
01:50PM 44.6167 -77.7833 245° Southwest 160 184 8,000  Level Montreal Center
01:51PM 44.6000 -77.8333 245° Southwest 160 184 8,000  Level Montreal Center
01:52PM 44.5833 -77.9000 251° West 160 184 8,000  Level Montreal Center
01:53PM 44.5667 -77.9000 180° South 160 184 8,000 -120 Level Toronto Center
01:54PM 44.5333 -77.9500 227° Southwest 160 184 7,800 -300 Descending Toronto Center
01:55PM 44.5167 -78.0000 245° Southwest 170 196 7,500 -360 Descending Toronto Center
01:56PM 44.4833 -78.0667 235° Southwest 170 196 7,100 -360 Descending Toronto Center
01:57PM 44.4667 -78.1167 245° Southwest 180 207 6,800 -300 Descending Toronto Center
01:58PM 44.4500 -78.1833 251° West 170 196 6,500 -300 Descending Toronto Center
01:59PM 44.4167 -78.2333 227° Southwest 180 207 6,200 -300 Descending Toronto Center
02:00PM 44.3833 -78.3000 235° Southwest 180 207 6,000 -300 Descending Toronto Center
02:01PM 44.3667 -78.3500 245° Southwest 180 207 5,700 -360 Descending Toronto Center
02:02PM 44.3333 -78.4167 235° Southwest 170 196 5,300 -300 Descending Toronto Center
02:03PM 44.3167 -78.4667 245° Southwest 170 196 5,100 -120 Descending Toronto Center
02:04PM 44.3000 -78.5167 245° Southwest 160 184 5,100 -60 Level Toronto Center
02:05PM 44.2833 -78.5833 251° West 160 184 5,000 -60 Descending Toronto Center
02:06PM 44.2667 -78.6333 245° Southwest 160 184 5,000  Level Toronto Center
02:07PM 44.2333 -78.6833 227° Southwest 160 184 5,000  Level Toronto Center
02:08PM 44.2167 -78.7500 251° West 160 184 5,000  Level Toronto Center
02:09PM 44.2000 -78.8000 245° Southwest 160 184 5,000  Level Toronto Center
02:10PM 44.1667 -78.8500 227° Southwest 160 184 5,000  Level Toronto Center
02:11PM 44.1500 -78.8833 235° Southwest 160 184 5,000  Level Toronto Center
02:12PM 44.1167 -78.9667 241° Southwest 160 184 5,000  Level Toronto Center
02:13PM 44.0833 -78.9833 200° South 160 184 5,000  Level Toronto Center
02:14PM 44.0500 -79.0333 227° Southwest 160 184 5,000 -240 Level Toronto Center
02:15PM 44.0333 -79.0833 245° Southwest 160 184 4,600 -420 Descending Toronto Center
02:16PM 44.0000 -79.1167 216° Southwest 150 173 4,200 -480 Descending Toronto Center
02:17PM 43.9667 -79.1667 227° Southwest 150 173 3,700 -600 Descending Toronto Center
02:18PM 43.9500 -79.2167 245° Southwest 160 184 3,100 -420 Descending Toronto Center
02:19PM 43.9167 -79.2667 227° Southwest 140 161 2,900 -300 Descending Toronto Center
02:20PM 43.9000 -79.2833 216° Southwest 110 127 2,500 -600 Descending Toronto Center
02:21PM 43.8833 -79.3167 235° Southwest 100 115 1,800 -420 Descending Toronto Center
02:22PM 43.8833 -79.3333 270° West 90 104 1,700 -60 Descending Toronto Center
02:23PM 43.9000 -79.3500 324° Northwest 90 104 1,700 -240 Level Toronto Center
02:24PM 43.8667 -79.3833 216° Southwest 90 104 1,300 -420 Descending Toronto Center